sensor_id;sensor_type;location;lat;lon;timestamp;temperature;humidity
9987;DHT22;5033;46.310;11.214;2022-08-03T00:00:58;22.50;99.90
9987;DHT22;5033;46.310;11.214;2022-08-03T00:03:25;22.50;99.90
9987;DHT22;5033;46.310;11.214;2022-08-03T00:05:52;22.60;99.90
9987;DHT22;5033;46.310;11.214;2022-08-03T00:08:21;22.60;99.90
9987;DHT22;5033;46.310;11.214;2022-08-03T00:10:48;22.50;99.90
9987;DHT22;5033;46.310;11.214;2022-08-03T00:13:15;22.50;99.90
9987;DHT22;5033;46.310;11.214;2022-08-03T00:15:44;22.40;99.90
9987;DHT22;5033;46.310;11.214;2022-08-03T00:18:11;22.40;99.90
9987;DHT22;5033;46.310;11.214;2022-08-03T00:20:38;22.40;99.90
9987;DHT22;5033;46.310;11.214;2022-08-03T00:23:05;22.30;99.90
9987;DHT22;5033;46.310;11.214;2022-08-03T00:25:35;22.30;99.90
9987;DHT22;5033;46.310;11.214;2022-08-03T00:28:03;22.20;99.90
9987;DHT22;5033;46.310;11.214;2022-08-03T00:30:31;22.10;99.90
9987;DHT22;5033;46.310;11.214;2022-08-03T00:32:58;22.10;99.90
9987;DHT22;5033;46.310;11.214;2022-08-03T00:35:25;22.10;99.90
9987;DHT22;5033;46.310;11.214;2022-08-03T00:37:52;22.10;99.90
9987;DHT22;5033;46.310;11.214;2022-08-03T00:40:20;22.10;99.90
9987;DHT22;5033;46.310;11.214;2022-08-03T00:42:51;22.10;99.90
9987;DHT22;5033;46.310;11.214;2022-08-03T00:45:19;22.10;99.90
9987;DHT22;5033;46.310;11.214;2022-08-03T00:47:47;22.10;99.90
9987;DHT22;5033;46.310;11.214;2022-08-03T00:50:15;22.10;99.90
9987;DHT22;5033;46.310;11.214;2022-08-03T00:52:43;22.10;99.90
9987;DHT22;5033;46.310;11.214;2022-08-03T00:55:11;22.10;99.90
9987;DHT22;5033;46.310;11.214;2022-08-03T00:57:38;22.10;99.90
9987;DHT22;5033;46.310;11.214;2022-08-03T01:00:09;22.00;99.90
9987;DHT22;5033;46.310;11.214;2022-08-03T01:02:37;22.00;99.90
9987;DHT22;5033;46.310;11.214;2022-08-03T01:05:04;22.10;99.90
9987;DHT22;5033;46.310;11.214;2022-08-03T01:07:41;22.10;99.90
9987;DHT22;5033;46.310;11.214;2022-08-03T01:10:18;22.10;99.90
9987;DHT22;5033;46.310;11.214;2022-08-03T01:12:53;22.10;99.90
9987;DHT22;5033;46.310;11.214;2022-08-03T01:15:30;22.00;99.90
9987;DHT22;5033;46.310;11.214;2022-08-03T01:18:06;21.90;99.90
9987;DHT22;5033;46.310;11.214;2022-08-03T01:20:39;21.90;99.90
9987;DHT22;5033;46.310;11.214;2022-08-03T01:23:26;21.90;99.90
9987;DHT22;5033;46.310;11.214;2022-08-03T01:26:16;21.80;99.90
9987;DHT22;5033;46.310;11.214;2022-08-03T01:29:02;21.80;99.90
9987;DHT22;5033;46.310;11.214;2022-08-03T01:31:38;21.70;99.90
9987;DHT22;5033;46.310;11.214;2022-08-03T01:34:07;21.70;99.90
9987;DHT22;5033;46.310;11.214;2022-08-03T01:36:39;21.70;99.90
9987;DHT22;5033;46.310;11.214;2022-08-03T01:39:08;21.70;99.90
9987;DHT22;5033;46.310;11.214;2022-08-03T01:41:41;21.70;99.90
9987;DHT22;5033;46.310;11.214;2022-08-03T01:44:11;21.70;99.90
9987;DHT22;5033;46.310;11.214;2022-08-03T01:46:41;21.60;99.90
9987;DHT22;5033;46.310;11.214;2022-08-03T01:49:10;21.60;99.90
9987;DHT22;5033;46.310;11.214;2022-08-03T01:51:41;21.60;99.90
9987;DHT22;5033;46.310;11.214;2022-08-03T01:54:09;21.60;99.90
9987;DHT22;5033;46.310;11.214;2022-08-03T01:56:38;21.60;99.90
9987;DHT22;5033;46.310;11.214;2022-08-03T01:59:06;21.60;99.90
9987;DHT22;5033;46.310;11.214;2022-08-03T02:01:35;21.50;99.90
9987;DHT22;5033;46.310;11.214;2022-08-03T02:04:05;21.50;99.90
9987;DHT22;5033;46.310;11.214;2022-08-03T02:06:33;21.50;99.90
9987;DHT22;5033;46.310;11.214;2022-08-03T02:09:02;21.50;99.90
9987;DHT22;5033;46.310;11.214;2022-08-03T02:11:30;21.50;99.90
9987;DHT22;5033;46.310;11.214;2022-08-03T02:14:00;21.50;99.90
9987;DHT22;5033;46.310;11.214;2022-08-03T02:16:30;21.50;99.90
9987;DHT22;5033;46.310;11.214;2022-08-03T02:19:00;21.40;99.90
9987;DHT22;5033;46.310;11.214;2022-08-03T02:21:31;21.40;99.90
9987;DHT22;5033;46.310;11.214;2022-08-03T02:23:59;21.40;99.90
9987;DHT22;5033;46.310;11.214;2022-08-03T02:26:28;21.40;99.90
9987;DHT22;5033;46.310;11.214;2022-08-03T02:28:58;21.30;99.90
9987;DHT22;5033;46.310;11.214;2022-08-03T02:31:29;21.30;99.90
9987;DHT22;5033;46.310;11.214;2022-08-03T02:34:02;21.30;99.90
9987;DHT22;5033;46.310;11.214;2022-08-03T02:36:35;21.30;99.90
9987;DHT22;5033;46.310;11.214;2022-08-03T02:39:04;21.30;99.90
9987;DHT22;5033;46.310;11.214;2022-08-03T02:41:35;21.20;99.90
9987;DHT22;5033;46.310;11.214;2022-08-03T02:44:07;21.20;99.90
9987;DHT22;5033;46.310;11.214;2022-08-03T02:46:37;21.20;99.90
9987;DHT22;5033;46.310;11.214;2022-08-03T02:49:06;21.10;99.90
9987;DHT22;5033;46.310;11.214;2022-08-03T02:51:36;21.10;99.90
9987;DHT22;5033;46.310;11.214;2022-08-03T02:54:06;21.10;99.90
9987;DHT22;5033;46.310;11.214;2022-08-03T02:56:34;21.10;99.90
9987;DHT22;5033;46.310;11.214;2022-08-03T02:59:02;21.00;99.90
9987;DHT22;5033;46.310;11.214;2022-08-03T03:01:30;21.00;99.90
9987;DHT22;5033;46.310;11.214;2022-08-03T03:03:59;21.00;99.90
9987;DHT22;5033;46.310;11.214;2022-08-03T03:06:27;21.00;99.90
9987;DHT22;5033;46.310;11.214;2022-08-03T03:08:56;21.00;99.90
9987;DHT22;5033;46.310;11.214;2022-08-03T03:11:25;20.90;99.90
9987;DHT22;5033;46.310;11.214;2022-08-03T03:13:52;20.90;99.90
9987;DHT22;5033;46.310;11.214;2022-08-03T03:16:22;20.80;99.90
9987;DHT22;5033;46.310;11.214;2022-08-03T03:18:53;20.80;99.90
9987;DHT22;5033;46.310;11.214;2022-08-03T03:21:21;20.80;99.90
9987;DHT22;5033;46.310;11.214;2022-08-03T03:23:49;20.80;99.90
9987;DHT22;5033;46.310;11.214;2022-08-03T03:26:19;20.80;99.90
9987;DHT22;5033;46.310;11.214;2022-08-03T03:28:47;20.80;99.90
9987;DHT22;5033;46.310;11.214;2022-08-03T03:31:14;20.70;99.90
9987;DHT22;5033;46.310;11.214;2022-08-03T03:33:41;20.70;99.90
9987;DHT22;5033;46.310;11.214;2022-08-03T03:36:09;20.70;99.90
9987;DHT22;5033;46.310;11.214;2022-08-03T03:38:36;20.70;99.90
9987;DHT22;5033;46.310;11.214;2022-08-03T03:41:03;20.70;99.90
9987;DHT22;5033;46.310;11.214;2022-08-03T03:43:32;20.70;99.90
9987;DHT22;5033;46.310;11.214;2022-08-03T03:45:59;20.60;99.90
9987;DHT22;5033;46.310;11.214;2022-08-03T03:48:27;20.50;99.90
9987;DHT22;5033;46.310;11.214;2022-08-03T03:50:54;20.50;99.90
9987;DHT22;5033;46.310;11.214;2022-08-03T03:53:22;20.60;99.90
9987;DHT22;5033;46.310;11.214;2022-08-03T03:55:51;20.60;99.90
9987;DHT22;5033;46.310;11.214;2022-08-03T03:58:19;20.60;99.90
9987;DHT22;5033;46.310;11.214;2022-08-03T04:00:48;20.60;99.90
9987;DHT22;5033;46.310;11.214;2022-08-03T04:03:15;20.60;99.90
9987;DHT22;5033;46.310;11.214;2022-08-03T04:05:42;20.60;99.90
9987;DHT22;5033;46.310;11.214;2022-08-03T04:08:27;20.60;99.90
9987;DHT22;5033;46.310;11.214;2022-08-03T04:11:15;20.60;99.90
9987;DHT22;5033;46.310;11.214;2022-08-03T04:13:48;20.60;99.90
9987;DHT22;5033;46.310;11.214;2022-08-03T04:16:19;20.60;99.90
9987;DHT22;5033;46.310;11.214;2022-08-03T04:18:52;20.60;99.90
9987;DHT22;5033;46.310;11.214;2022-08-03T04:21:21;20.60;99.90
9987;DHT22;5033;46.310;11.214;2022-08-03T04:23:53;20.50;99.90
9987;DHT22;5033;46.310;11.214;2022-08-03T04:26:22;20.50;99.90
9987;DHT22;5033;46.310;11.214;2022-08-03T04:28:51;20.50;99.90
9987;DHT22;5033;46.310;11.214;2022-08-03T04:31:22;20.50;99.90
9987;DHT22;5033;46.310;11.214;2022-08-03T04:33:50;20.50;99.90
9987;DHT22;5033;46.310;11.214;2022-08-03T04:36:20;20.40;99.90
9987;DHT22;5033;46.310;11.214;2022-08-03T04:38:54;20.50;99.90
9987;DHT22;5033;46.310;11.214;2022-08-03T04:41:24;20.60;99.90
9987;DHT22;5033;46.310;11.214;2022-08-03T04:43:54;20.60;99.90
9987;DHT22;5033;46.310;11.214;2022-08-03T04:46:26;20.80;99.90
9987;DHT22;5033;46.310;11.214;2022-08-03T04:48:55;21.00;99.90
9987;DHT22;5033;46.310;11.214;2022-08-03T04:51:22;21.10;99.90
9987;DHT22;5033;46.310;11.214;2022-08-03T04:53:50;21.20;99.90
9987;DHT22;5033;46.310;11.214;2022-08-03T04:56:17;21.30;99.90
9987;DHT22;5033;46.310;11.214;2022-08-03T04:58:44;21.40;99.90
9987;DHT22;5033;46.310;11.214;2022-08-03T05:01:11;21.60;99.90
9987;DHT22;5033;46.310;11.214;2022-08-03T05:03:40;21.70;99.90
9987;DHT22;5033;46.310;11.214;2022-08-03T05:06:07;21.70;99.90
9987;DHT22;5033;46.310;11.214;2022-08-03T05:08:34;21.80;99.90
9987;DHT22;5033;46.310;11.214;2022-08-03T05:11:01;21.90;99.90
9987;DHT22;5033;46.310;11.214;2022-08-03T05:13:29;22.10;99.90
9987;DHT22;5033;46.310;11.214;2022-08-03T05:15:56;22.20;99.90
9987;DHT22;5033;46.310;11.214;2022-08-03T05:18:23;22.40;99.90
9987;DHT22;5033;46.310;11.214;2022-08-03T05:20:51;22.50;99.90
9987;DHT22;5033;46.310;11.214;2022-08-03T05:23:18;22.50;99.90
9987;DHT22;5033;46.310;11.214;2022-08-03T05:25:46;22.50;99.90
9987;DHT22;5033;46.310;11.214;2022-08-03T05:28:13;22.50;99.90
9987;DHT22;5033;46.310;11.214;2022-08-03T05:30:40;22.60;99.90
9987;DHT22;5033;46.310;11.214;2022-08-03T05:33:07;22.60;99.90
9987;DHT22;5033;46.310;11.214;2022-08-03T05:35:35;22.70;99.90
9987;DHT22;5033;46.310;11.214;2022-08-03T05:38:05;22.80;99.90
9987;DHT22;5033;46.310;11.214;2022-08-03T05:40:32;23.00;99.90
9987;DHT22;5033;46.310;11.214;2022-08-03T05:43:00;23.10;99.90
9987;DHT22;5033;46.310;11.214;2022-08-03T05:45:27;23.20;99.90
9987;DHT22;5033;46.310;11.214;2022-08-03T05:47:54;23.20;99.90
9987;DHT22;5033;46.310;11.214;2022-08-03T05:50:21;23.20;99.90
9987;DHT22;5033;46.310;11.214;2022-08-03T05:52:49;23.20;99.90
9987;DHT22;5033;46.310;11.214;2022-08-03T05:55:17;23.40;99.90
9987;DHT22;5033;46.310;11.214;2022-08-03T05:57:45;23.40;99.90
9987;DHT22;5033;46.310;11.214;2022-08-03T06:00:13;23.50;99.90
9987;DHT22;5033;46.310;11.214;2022-08-03T06:02:41;23.60;99.90
9987;DHT22;5033;46.310;11.214;2022-08-03T06:05:09;23.80;99.90
9987;DHT22;5033;46.310;11.214;2022-08-03T06:07:36;23.80;99.90
9987;DHT22;5033;46.310;11.214;2022-08-03T06:10:04;23.90;99.90
9987;DHT22;5033;46.310;11.214;2022-08-03T06:12:33;23.90;99.90
9987;DHT22;5033;46.310;11.214;2022-08-03T06:15:01;24.00;99.90
9987;DHT22;5033;46.310;11.214;2022-08-03T06:17:29;24.00;99.90
9987;DHT22;5033;46.310;11.214;2022-08-03T06:19:56;24.00;99.90
9987;DHT22;5033;46.310;11.214;2022-08-03T06:22:23;24.00;99.90
9987;DHT22;5033;46.310;11.214;2022-08-03T06:24:50;24.00;99.90
9987;DHT22;5033;46.310;11.214;2022-08-03T06:27:17;24.10;99.90
9987;DHT22;5033;46.310;11.214;2022-08-03T06:29:46;24.10;99.90
9987;DHT22;5033;46.310;11.214;2022-08-03T06:32:13;24.10;99.90
9987;DHT22;5033;46.310;11.214;2022-08-03T06:34:41;24.20;99.90
9987;DHT22;5033;46.310;11.214;2022-08-03T06:37:08;24.20;99.90
9987;DHT22;5033;46.310;11.214;2022-08-03T06:39:36;24.20;99.90
9987;DHT22;5033;46.310;11.214;2022-08-03T06:42:03;24.20;99.90
9987;DHT22;5033;46.310;11.214;2022-08-03T06:44:30;24.20;99.90
9987;DHT22;5033;46.310;11.214;2022-08-03T06:46:59;24.30;99.90
9987;DHT22;5033;46.310;11.214;2022-08-03T06:49:26;24.40;99.90
9987;DHT22;5033;46.310;11.214;2022-08-03T06:51:53;24.40;99.90
9987;DHT22;5033;46.310;11.214;2022-08-03T06:54:21;24.50;99.90
9987;DHT22;5033;46.310;11.214;2022-08-03T06:56:49;24.60;99.90
9987;DHT22;5033;46.310;11.214;2022-08-03T06:59:16;24.60;99.90
9987;DHT22;5033;46.310;11.214;2022-08-03T07:01:43;24.70;99.90
9987;DHT22;5033;46.310;11.214;2022-08-03T07:04:12;24.70;99.90
9987;DHT22;5033;46.310;11.214;2022-08-03T07:06:39;24.80;99.90
9987;DHT22;5033;46.310;11.214;2022-08-03T07:09:06;24.80;99.90
9987;DHT22;5033;46.310;11.214;2022-08-03T07:11:33;24.90;99.90
9987;DHT22;5033;46.310;11.214;2022-08-03T07:14:00;25.00;99.90
9987;DHT22;5033;46.310;11.214;2022-08-03T07:16:27;25.10;99.90
9987;DHT22;5033;46.310;11.214;2022-08-03T07:18:54;25.10;99.90
9987;DHT22;5033;46.310;11.214;2022-08-03T07:21:23;25.10;99.90
9987;DHT22;5033;46.310;11.214;2022-08-03T07:23:50;25.20;99.90
9987;DHT22;5033;46.310;11.214;2022-08-03T07:26:17;25.40;99.90
9987;DHT22;5033;46.310;11.214;2022-08-03T07:28:44;25.60;99.90
9987;DHT22;5033;46.310;11.214;2022-08-03T07:31:11;25.70;99.90
9987;DHT22;5033;46.310;11.214;2022-08-03T07:33:38;25.60;99.90
9987;DHT22;5033;46.310;11.214;2022-08-03T07:36:05;25.70;99.90
9987;DHT22;5033;46.310;11.214;2022-08-03T07:38:35;25.70;99.90
9987;DHT22;5033;46.310;11.214;2022-08-03T07:41:02;25.70;99.90
9987;DHT22;5033;46.310;11.214;2022-08-03T07:43:29;25.80;99.90
9987;DHT22;5033;46.310;11.214;2022-08-03T07:45:56;25.80;99.90
9987;DHT22;5033;46.310;11.214;2022-08-03T07:48:24;25.90;99.90
9987;DHT22;5033;46.310;11.214;2022-08-03T07:50:51;26.00;99.90
9987;DHT22;5033;46.310;11.214;2022-08-03T07:53:18;26.10;99.90
9987;DHT22;5033;46.310;11.214;2022-08-03T07:55:46;26.20;99.90
9987;DHT22;5033;46.310;11.214;2022-08-03T07:58:14;26.20;99.90
9987;DHT22;5033;46.310;11.214;2022-08-03T08:00:43;26.40;99.90
9987;DHT22;5033;46.310;11.214;2022-08-03T08:03:10;26.40;99.90
9987;DHT22;5033;46.310;11.214;2022-08-03T08:05:38;26.50;99.90
9987;DHT22;5033;46.310;11.214;2022-08-03T08:08:06;26.60;99.90
9987;DHT22;5033;46.310;11.214;2022-08-03T08:10:33;26.70;99.90
9987;DHT22;5033;46.310;11.214;2022-08-03T08:13:03;26.80;99.90
9987;DHT22;5033;46.310;11.214;2022-08-03T08:15:30;26.90;99.90
9987;DHT22;5033;46.310;11.214;2022-08-03T08:17:58;26.90;99.90
9987;DHT22;5033;46.310;11.214;2022-08-03T08:20:28;26.90;99.90
9987;DHT22;5033;46.310;11.214;2022-08-03T08:22:56;27.00;99.90
9987;DHT22;5033;46.310;11.214;2022-08-03T08:25:24;27.00;99.90
9987;DHT22;5033;46.310;11.214;2022-08-03T08:27:51;27.00;99.90
9987;DHT22;5033;46.310;11.214;2022-08-03T08:30:21;27.10;99.90
9987;DHT22;5033;46.310;11.214;2022-08-03T08:32:49;27.30;99.90
9987;DHT22;5033;46.310;11.214;2022-08-03T08:35:17;27.40;99.90
9987;DHT22;5033;46.310;11.214;2022-08-03T08:37:44;27.50;99.90
9987;DHT22;5033;46.310;11.214;2022-08-03T08:40:12;27.60;99.90
9987;DHT22;5033;46.310;11.214;2022-08-03T08:42:40;27.60;99.90
9987;DHT22;5033;46.310;11.214;2022-08-03T08:45:08;27.60;99.90
9987;DHT22;5033;46.310;11.214;2022-08-03T08:47:39;27.80;99.90
9987;DHT22;5033;46.310;11.214;2022-08-03T08:50:07;27.90;99.90
9987;DHT22;5033;46.310;11.214;2022-08-03T08:52:39;28.00;99.90
9987;DHT22;5033;46.310;11.214;2022-08-03T08:55:08;28.20;99.90
9987;DHT22;5033;46.310;11.214;2022-08-03T08:57:37;28.20;99.90
9987;DHT22;5033;46.310;11.214;2022-08-03T09:00:08;28.20;99.90
9987;DHT22;5033;46.310;11.214;2022-08-03T09:02:40;28.10;99.90
9987;DHT22;5033;46.310;11.214;2022-08-03T09:05:09;28.30;99.90
9987;DHT22;5033;46.310;11.214;2022-08-03T09:07:38;28.40;99.90
9987;DHT22;5033;46.310;11.214;2022-08-03T09:10:07;28.40;99.90
9987;DHT22;5033;46.310;11.214;2022-08-03T09:12:37;28.50;99.90
9987;DHT22;5033;46.310;11.214;2022-08-03T09:15:18;28.50;99.90
9987;DHT22;5033;46.310;11.214;2022-08-03T09:17:47;28.40;99.90
9987;DHT22;5033;46.310;11.214;2022-08-03T09:20:15;28.50;99.90
9987;DHT22;5033;46.310;11.214;2022-08-03T09:22:53;28.80;99.90
9987;DHT22;5033;46.310;11.214;2022-08-03T09:25:26;28.90;99.90
9987;DHT22;5033;46.310;11.214;2022-08-03T09:27:55;28.90;99.90
9987;DHT22;5033;46.310;11.214;2022-08-03T09:30:29;28.90;99.90
9987;DHT22;5033;46.310;11.214;2022-08-03T09:33:01;29.00;99.90
9987;DHT22;5033;46.310;11.214;2022-08-03T09:35:28;29.10;99.90
9987;DHT22;5033;46.310;11.214;2022-08-03T09:38:12;29.30;99.90
9987;DHT22;5033;46.310;11.214;2022-08-03T09:40:39;29.30;99.90
9987;DHT22;5033;46.310;11.214;2022-08-03T09:43:07;29.40;99.90
9987;DHT22;5033;46.310;11.214;2022-08-03T09:45:34;29.40;99.90
9987;DHT22;5033;46.310;11.214;2022-08-03T09:48:22;29.50;99.90
9987;DHT22;5033;46.310;11.214;2022-08-03T09:50:50;29.50;99.90
9987;DHT22;5033;46.310;11.214;2022-08-03T09:53:18;29.50;99.90
9987;DHT22;5033;46.310;11.214;2022-08-03T09:55:53;29.80;99.90
9987;DHT22;5033;46.310;11.214;2022-08-03T09:58:21;30.00;99.90
9987;DHT22;5033;46.310;11.214;2022-08-03T10:00:53;29.70;99.90
9987;DHT22;5033;46.310;11.214;2022-08-03T10:03:22;29.70;99.90
9987;DHT22;5033;46.310;11.214;2022-08-03T10:05:50;29.90;99.90
9987;DHT22;5033;46.310;11.214;2022-08-03T10:08:18;30.10;99.90
9987;DHT22;5033;46.310;11.214;2022-08-03T10:10:47;30.00;99.90
9987;DHT22;5033;46.310;11.214;2022-08-03T10:13:16;30.00;99.90
9987;DHT22;5033;46.310;11.214;2022-08-03T10:15:44;30.10;99.90
9987;DHT22;5033;46.310;11.214;2022-08-03T10:18:12;30.20;99.90
9987;DHT22;5033;46.310;11.214;2022-08-03T10:20:45;30.20;99.90
9987;DHT22;5033;46.310;11.214;2022-08-03T10:23:16;30.20;99.90
9987;DHT22;5033;46.310;11.214;2022-08-03T10:25:46;30.20;99.90
9987;DHT22;5033;46.310;11.214;2022-08-03T10:28:17;30.30;99.90
9987;DHT22;5033;46.310;11.214;2022-08-03T10:30:47;30.30;99.90
9987;DHT22;5033;46.310;11.214;2022-08-03T10:33:18;30.40;99.90
9987;DHT22;5033;46.310;11.214;2022-08-03T10:35:53;30.40;99.90
9987;DHT22;5033;46.310;11.214;2022-08-03T10:38:28;30.50;99.90
9987;DHT22;5033;46.310;11.214;2022-08-03T10:40:55;30.50;99.90
9987;DHT22;5033;46.310;11.214;2022-08-03T10:43:26;30.40;99.90
9987;DHT22;5033;46.310;11.214;2022-08-03T10:45:55;30.70;99.90
9987;DHT22;5033;46.310;11.214;2022-08-03T10:48:22;30.90;99.90
9987;DHT22;5033;46.310;11.214;2022-08-03T10:50:52;31.00;99.90
9987;DHT22;5033;46.310;11.214;2022-08-03T10:53:33;30.80;99.90
9987;DHT22;5033;46.310;11.214;2022-08-03T10:56:01;30.90;99.90
9987;DHT22;5033;46.310;11.214;2022-08-03T10:58:48;30.80;99.90
9987;DHT22;5033;46.310;11.214;2022-08-03T11:01:19;30.90;99.90
9987;DHT22;5033;46.310;11.214;2022-08-03T11:04:17;31.20;99.90
9987;DHT22;5033;46.310;11.214;2022-08-03T11:06:47;31.10;99.90
9987;DHT22;5033;46.310;11.214;2022-08-03T11:09:16;31.20;99.90
9987;DHT22;5033;46.310;11.214;2022-08-03T11:11:46;31.10;99.90
9987;DHT22;5033;46.310;11.214;2022-08-03T11:14:15;31.10;99.90
9987;DHT22;5033;46.310;11.214;2022-08-03T11:16:45;31.20;99.90
9987;DHT22;5033;46.310;11.214;2022-08-03T11:19:15;31.10;99.90
9987;DHT22;5033;46.310;11.214;2022-08-03T11:21:54;31.10;99.90
9987;DHT22;5033;46.310;11.214;2022-08-03T11:24:56;31.20;99.90
9987;DHT22;5033;46.310;11.214;2022-08-03T11:27:25;31.20;99.90
9987;DHT22;5033;46.310;11.214;2022-08-03T11:29:57;31.50;99.90
9987;DHT22;5033;46.310;11.214;2022-08-03T11:32:58;31.50;99.90
9987;DHT22;5033;46.310;11.214;2022-08-03T11:35:27;31.50;99.90
9987;DHT22;5033;46.310;11.214;2022-08-03T11:38:17;31.40;99.90
9987;DHT22;5033;46.310;11.214;2022-08-03T11:40:50;31.30;99.90
9987;DHT22;5033;46.310;11.214;2022-08-03T11:43:43;31.30;99.90
9987;DHT22;5033;46.310;11.214;2022-08-03T11:46:12;31.40;99.90
9987;DHT22;5033;46.310;11.214;2022-08-03T11:48:45;31.60;99.90
9987;DHT22;5033;46.310;11.214;2022-08-03T11:51:20;31.70;99.90
9987;DHT22;5033;46.310;11.214;2022-08-03T11:53:52;31.90;99.90
9987;DHT22;5033;46.310;11.214;2022-08-03T11:56:20;31.80;99.90
9987;DHT22;5033;46.310;11.214;2022-08-03T11:58:48;31.70;99.90
9987;DHT22;5033;46.310;11.214;2022-08-03T12:01:19;31.50;99.90
9987;DHT22;5033;46.310;11.214;2022-08-03T12:03:47;31.40;99.90
9987;DHT22;5033;46.310;11.214;2022-08-03T12:06:15;31.60;99.90
9987;DHT22;5033;46.310;11.214;2022-08-03T12:08:44;31.80;99.90
9987;DHT22;5033;46.310;11.214;2022-08-03T12:11:14;32.10;99.90
9987;DHT22;5033;46.310;11.214;2022-08-03T12:13:43;32.30;99.90
9987;DHT22;5033;46.310;11.214;2022-08-03T12:16:16;32.50;99.90
9987;DHT22;5033;46.310;11.214;2022-08-03T12:18:44;32.60;99.90
9987;DHT22;5033;46.310;11.214;2022-08-03T12:21:11;32.60;99.90
9987;DHT22;5033;46.310;11.214;2022-08-03T12:23:39;32.60;99.90
9987;DHT22;5033;46.310;11.214;2022-08-03T12:26:07;32.60;99.90
9987;DHT22;5033;46.310;11.214;2022-08-03T12:28:36;32.60;99.90
9987;DHT22;5033;46.310;11.214;2022-08-03T12:31:05;32.60;99.90
9987;DHT22;5033;46.310;11.214;2022-08-03T12:33:53;32.60;99.90
9987;DHT22;5033;46.310;11.214;2022-08-03T12:36:20;32.60;99.90
9987;DHT22;5033;46.310;11.214;2022-08-03T12:38:54;32.60;99.90
9987;DHT22;5033;46.310;11.214;2022-08-03T12:41:27;32.90;99.90
9987;DHT22;5033;46.310;11.214;2022-08-03T12:43:56;32.90;99.90
9987;DHT22;5033;46.310;11.214;2022-08-03T12:46:29;33.00;99.90
9987;DHT22;5033;46.310;11.214;2022-08-03T12:49:04;33.20;99.90
9987;DHT22;5033;46.310;11.214;2022-08-03T12:51:33;33.00;99.90
9987;DHT22;5033;46.310;11.214;2022-08-03T12:54:03;33.00;99.90
9987;DHT22;5033;46.310;11.214;2022-08-03T12:56:30;33.00;99.90
9987;DHT22;5033;46.310;11.214;2022-08-03T12:58:59;32.90;99.90
9987;DHT22;5033;46.310;11.214;2022-08-03T13:01:35;32.90;99.90
9987;DHT22;5033;46.310;11.214;2022-08-03T13:04:03;32.90;99.90
9987;DHT22;5033;46.310;11.214;2022-08-03T13:06:31;33.00;99.90
9987;DHT22;5033;46.310;11.214;2022-08-03T13:09:05;33.10;99.90
9987;DHT22;5033;46.310;11.214;2022-08-03T13:11:33;33.20;99.90
9987;DHT22;5033;46.310;11.214;2022-08-03T13:14:01;33.20;99.90
9987;DHT22;5033;46.310;11.214;2022-08-03T13:16:29;33.20;99.90
9987;DHT22;5033;46.310;11.214;2022-08-03T13:18:56;33.20;99.90
9987;DHT22;5033;46.310;11.214;2022-08-03T13:21:23;33.10;99.90
9987;DHT22;5033;46.310;11.214;2022-08-03T13:23:50;33.20;99.90
9987;DHT22;5033;46.310;11.214;2022-08-03T13:26:17;33.10;99.90
9987;DHT22;5033;46.310;11.214;2022-08-03T13:28:44;33.10;99.90
9987;DHT22;5033;46.310;11.214;2022-08-03T13:31:13;33.20;99.90
9987;DHT22;5033;46.310;11.214;2022-08-03T13:33:40;33.30;99.90
9987;DHT22;5033;46.310;11.214;2022-08-03T13:36:07;33.30;99.90
9987;DHT22;5033;46.310;11.214;2022-08-03T13:38:34;33.30;99.90
9987;DHT22;5033;46.310;11.214;2022-08-03T13:41:02;33.40;99.90
9987;DHT22;5033;46.310;11.214;2022-08-03T13:43:29;33.40;99.90
9987;DHT22;5033;46.310;11.214;2022-08-03T13:45:56;33.30;99.90
9987;DHT22;5033;46.310;11.214;2022-08-03T13:48:25;33.20;99.90
9987;DHT22;5033;46.310;11.214;2022-08-03T13:50:52;33.20;99.90
9987;DHT22;5033;46.310;11.214;2022-08-03T13:53:20;33.30;99.90
9987;DHT22;5033;46.310;11.214;2022-08-03T13:55:47;33.40;99.90
9987;DHT22;5033;46.310;11.214;2022-08-03T13:58:14;33.40;99.90
9987;DHT22;5033;46.310;11.214;2022-08-03T14:00:41;33.30;99.90
9987;DHT22;5033;46.310;11.214;2022-08-03T14:03:08;33.40;99.80
9987;DHT22;5033;46.310;11.214;2022-08-03T14:05:36;33.40;99.70
9987;DHT22;5033;46.310;11.214;2022-08-03T14:08:05;33.30;97.80
9987;DHT22;5033;46.310;11.214;2022-08-03T14:10:33;33.10;97.80
9987;DHT22;5033;46.310;11.214;2022-08-03T14:13:02;33.10;97.80
9987;DHT22;5033;46.310;11.214;2022-08-03T14:15:29;33.00;98.20
9987;DHT22;5033;46.310;11.214;2022-08-03T14:17:56;32.90;97.80
9987;DHT22;5033;46.310;11.214;2022-08-03T14:20:24;32.80;96.60
9987;DHT22;5033;46.310;11.214;2022-08-03T14:22:53;32.80;95.30
9987;DHT22;5033;46.310;11.214;2022-08-03T14:25:22;32.80;94.70
9987;DHT22;5033;46.310;11.214;2022-08-03T14:27:49;32.90;95.30
9987;DHT22;5033;46.310;11.214;2022-08-03T14:30:17;32.90;95.20
9987;DHT22;5033;46.310;11.214;2022-08-03T14:32:44;32.90;95.00
9987;DHT22;5033;46.310;11.214;2022-08-03T14:35:11;32.90;95.20
9987;DHT22;5033;46.310;11.214;2022-08-03T14:37:38;32.90;94.70
9987;DHT22;5033;46.310;11.214;2022-08-03T14:40:07;32.90;95.50
9987;DHT22;5033;46.310;11.214;2022-08-03T14:42:34;32.90;95.70
9987;DHT22;5033;46.310;11.214;2022-08-03T14:45:02;33.10;96.10
9987;DHT22;5033;46.310;11.214;2022-08-03T14:47:29;32.90;95.10
9987;DHT22;5033;46.310;11.214;2022-08-03T14:49:57;32.90;96.30
9987;DHT22;5033;46.310;11.214;2022-08-03T14:52:24;32.80;95.40
9987;DHT22;5033;46.310;11.214;2022-08-03T14:54:52;32.80;96.00
9987;DHT22;5033;46.310;11.214;2022-08-03T14:57:20;32.80;95.50
9987;DHT22;5033;46.310;11.214;2022-08-03T14:59:47;32.90;96.10
9987;DHT22;5033;46.310;11.214;2022-08-03T15:02:15;32.90;95.70
9987;DHT22;5033;46.310;11.214;2022-08-03T15:04:42;32.60;96.70
9987;DHT22;5033;46.310;11.214;2022-08-03T15:07:09;32.50;96.80
9987;DHT22;5033;46.310;11.214;2022-08-03T15:09:36;32.60;97.90
9987;DHT22;5033;46.310;11.214;2022-08-03T15:12:04;32.60;97.80
9987;DHT22;5033;46.310;11.214;2022-08-03T15:14:33;32.60;98.00
9987;DHT22;5033;46.310;11.214;2022-08-03T15:17:00;32.70;97.90
9987;DHT22;5033;46.310;11.214;2022-08-03T15:19:27;32.70;97.70
9987;DHT22;5033;46.310;11.214;2022-08-03T15:21:54;32.60;97.80
9987;DHT22;5033;46.310;11.214;2022-08-03T15:24:21;32.40;97.40
9987;DHT22;5033;46.310;11.214;2022-08-03T15:26:49;32.30;98.10
9987;DHT22;5033;46.310;11.214;2022-08-03T15:29:16;32.10;98.50
9987;DHT22;5033;46.310;11.214;2022-08-03T15:31:44;32.00;98.30
9987;DHT22;5033;46.310;11.214;2022-08-03T15:34:11;32.00;98.60
9987;DHT22;5033;46.310;11.214;2022-08-03T15:36:38;31.80;98.80
9987;DHT22;5033;46.310;11.214;2022-08-03T15:39:05;31.80;98.80
9987;DHT22;5033;46.310;11.214;2022-08-03T15:41:33;31.80;98.60
9987;DHT22;5033;46.310;11.214;2022-08-03T15:44:00;31.80;98.60
9987;DHT22;5033;46.310;11.214;2022-08-03T15:46:27;31.80;98.60
9987;DHT22;5033;46.310;11.214;2022-08-03T15:48:56;31.70;98.60
9987;DHT22;5033;46.310;11.214;2022-08-03T15:51:23;31.60;98.70
9987;DHT22;5033;46.310;11.214;2022-08-03T15:53:50;31.70;99.10
9987;DHT22;5033;46.310;11.214;2022-08-03T15:56:17;31.60;99.00
9987;DHT22;5033;46.310;11.214;2022-08-03T15:58:44;31.60;99.00